Time;durP1;ratioP1;P1;durP2;ratioP2;P2;SDS_P1;SDS_P2;PMS_P1;PMS_P2;Temp;Humidity;BMP_temperature;BMP_pressure;BME280_temperature;BME280_humidity;BME280_pressure;Samples;Min_cycle;Max_cycle;Signal;HPM_P1;HPM_P2
2022/05/09 00:01:41;;;;;;;0.20;0.20;;;;;;;12.99;53.42;102166.13;5011318;28;20030;-71
2022/05/09 00:04:06;;;;;;;0.47;0.40;;;;;;;12.94;52.96;102164.41;5028850;28;20087;-70
2022/05/09 00:06:32;;;;;;;0.35;0.30;;;;;;;12.92;53.45;102152.34;5029857;28;20037;-71
2022/05/09 00:08:57;;;;;;;0.25;0.25;;;;;;;12.86;53.98;102157.16;5029675;28;20084;-70
2022/05/09 00:11:23;;;;;;;0.10;0.10;;;;;;;12.87;54.19;102164.16;5028914;28;20041;-72
2022/05/09 00:13:48;;;;;;;0.32;0.32;;;;;;;12.86;54.04;102156.38;5020106;28;20029;-71
2022/05/09 00:16:14;;;;;;;0.43;0.43;;;;;;;12.74;54.44;102159.03;5027045;28;20025;-72
2022/05/09 00:18:39;;;;;;;0.38;0.30;;;;;;;12.70;55.19;102153.47;5029255;28;20499;-70
2022/05/09 00:21:05;;;;;;;3.35;0.80;;;;;;;12.67;55.21;102154.97;5028677;28;20034;-70
2022/05/09 00:23:30;;;;;;;0.30;0.30;;;;;;;12.67;55.21;102154.97;5028974;28;20029;-71
2022/05/09 00:25:56;;;;;;;0.20;0.10;;;;;;;12.68;55.81;102156.53;5029426;28;20699;-71
2022/05/09 00:28:21;;;;;;;0.30;0.30;;;;;;;12.72;55.44;102166.69;5008820;28;20076;-72
2022/05/09 00:30:47;;;;;;;2.10;0.30;;;;;;;12.76;55.22;102162.19;5027232;28;20021;-71
2022/05/09 00:33:14;;;;;;;0.20;0.20;;;;;;;12.73;55.48;102158.25;5011732;28;20029;-71
2022/05/09 00:35:44;;;;;;;2.63;0.63;;;;;;;12.70;55.37;102161.59;5026969;28;20110;-70
2022/05/09 00:38:10;;;;;;;0.30;0.30;;;;;;;12.68;55.15;102161.13;5012389;28;20033;-70
2022/05/09 00:40:35;;;;;;;0.10;0.10;;;;;;;12.62;55.73;102162.44;5026278;28;20448;-70
2022/05/09 00:43:02;;;;;;;0.38;0.28;;;;;;;12.59;56.19;102155.81;5030155;28;20103;-70
2022/05/09 00:45:28;;;;;;;4.57;0.40;;;;;;;12.56;55.66;102161.09;4991862;28;20040;-70
2022/05/09 00:47:54;;;;;;;2.13;0.50;;;;;;;12.55;56.03;102159.50;5012859;28;20414;-70
2022/05/09 00:50:26;;;;;;;0.65;0.25;;;;;;;12.54;56.35;102164.09;5010541;28;20083;-71
2022/05/09 00:52:51;;;;;;;;;;;;;;;12.54;56.04;102160.63;5013755;28;20060;-70
2022/05/09 00:55:19;;;;;;;0.52;0.52;;;;;;;12.44;57.08;102156.41;5011752;28;19944;-70
2022/05/09 00:57:57;;;;;;;0.47;0.40;;;;;;;12.45;57.06;102163.41;5002033;28;20124;-70
2022/05/09 01:00:24;;;;;;;0.38;0.38;;;;;;;12.35;57.11;102165.72;5025200;28;20029;-71
2022/05/09 01:02:59;;;;;;;2.55;0.30;;;;;;;12.34;56.96;102164.13;5026271;28;20033;-71
2022/05/09 01:05:26;;;;;;;0.55;0.40;;;;;;;12.30;57.33;102172.09;5028545;28;20029;-70
2022/05/09 01:07:54;;;;;;;1.63;0.80;;;;;;;12.26;57.40;102165.75;5026447;28;20025;-70
2022/05/09 01:10:25;;;;;;;0.10;0.10;;;;;;;12.25;57.59;102169.56;5023985;28;20041;-70
2022/05/09 01:12:51;;;;;;;0.43;0.20;;;;;;;12.20;58.20;102167.06;5028306;28;20041;-71
2022/05/09 01:15:19;;;;;;;0.30;0.30;;;;;;;12.12;58.62;102167.91;5028203;28;20427;-72
2022/05/09 01:17:47;;;;;;;0.55;0.50;;;;;;;12.06;58.91;102166.50;5029647;28;20041;-71
2022/05/09 01:20:13;;;;;;;1.05;0.40;;;;;;;12.02;59.18;102170.22;5026909;28;20049;-70
2022/05/09 01:22:41;;;;;;;0.40;0.30;;;;;;;12.00;59.65;102157.03;5011128;28;20048;-70
2022/05/09 01:25:09;;;;;;;0.55;0.55;;;;;;;11.97;59.63;102159.59;5028554;28;20041;-73
2022/05/09 01:27:40;;;;;;;4.68;0.47;;;;;;;11.89;59.99;102163.13;5026210;28;20132;-71
2022/05/09 01:30:46;;;;;;;1.05;0.50;;;;;;;11.90;60.33;102157.41;5022771;28;20040;-71
2022/05/09 01:33:15;;;;;;;1.65;0.50;;;;;;;11.76;61.27;102160.34;5024885;28;20057;-71
2022/05/09 01:36:04;;;;;;;0.32;0.32;;;;;;;11.70;61.43;102158.94;5028632;28;20037;-71
2022/05/09 01:38:45;;;;;;;0.30;0.30;;;;;;;11.67;61.39;102156.88;5027195;28;20168;-71
2022/05/09 01:41:10;;;;;;;1.08;0.60;;;;;;;11.68;61.46;102154.97;5027516;28;20038;-71
2022/05/09 01:43:38;;;;;;;2.65;0.70;;;;;;;11.63;62.11;102163.25;5026863;28;20187;-68
2022/05/09 01:46:17;;;;;;;0.35;0.35;;;;;;;11.60;62.24;102158.47;5026345;28;20064;-70
2022/05/09 01:51:27;;;;;;;0.30;0.30;;;;;;;11.57;62.03;102159.13;5028841;28;20040;-69
2022/05/09 01:53:54;;;;;;;0.75;0.57;;;;;;;11.47;62.17;102154.88;5021961;28;20033;-73
2022/05/09 01:56:26;;;;;;;0.93;0.63;;;;;;;11.46;63.25;102164.09;5025241;28;20120;-72
2022/05/09 01:58:52;;;;;;;0.47;0.47;;;;;;;11.47;62.67;102154.09;5009631;28;20033;-70
2022/05/09 02:01:20;;;;;;;1.85;0.47;;;;;;;11.43;63.02;102158.53;5028253;28;20041;-71
2022/05/09 02:03:47;;;;;;;0.70;0.47;;;;;;;11.43;63.25;102164.75;5024794;28;20053;-68
2022/05/09 02:06:16;;;;;;;0.95;0.50;;;;;;;11.46;63.28;102163.28;5028397;28;20032;-69
2022/05/09 02:08:41;;;;;;;0.63;0.40;;;;;;;11.50;63.32;102166.91;5027400;28;20480;-69
2022/05/09 02:11:07;;;;;;;0.30;0.30;;;;;;;11.44;63.70;102166.31;5027691;28;20036;-69
2022/05/09 02:13:33;;;;;;;0.65;0.55;;;;;;;11.40;63.51;102167.28;5025759;28;20041;-69
2022/05/09 02:15:59;;;;;;;0.30;0.30;;;;;;;11.39;63.64;102174.59;5028156;28;20033;-69
2022/05/09 02:18:25;;;;;;;0.32;0.30;;;;;;;11.38;64.14;102166.81;5027306;28;20375;-69
2022/05/09 02:20:51;;;;;;;0.40;0.28;;;;;;;11.29;64.47;102174.13;5026938;28;20038;-70
2022/05/09 02:23:17;;;;;;;0.38;0.35;;;;;;;11.26;65.19;102178.28;5025507;28;20041;-71
2022/05/09 02:25:44;;;;;;;0.73;0.60;;;;;;;11.24;65.70;102179.72;5027651;28;20029;-69
2022/05/09 02:28:11;;;;;;;0.30;0.30;;;;;;;11.25;65.15;102178.56;5027800;28;20372;-69
2022/05/09 02:30:38;;;;;;;0.85;0.40;;;;;;;11.20;65.87;102166.09;5023708;28;20033;-69
2022/05/09 02:33:04;;;;;;;0.40;0.30;;;;;;;11.20;66.13;102170.69;5027282;28;20437;-70
2022/05/09 02:35:29;;;;;;;0.45;0.45;;;;;;;11.23;65.91;102167.31;5027378;28;20068;-69
2022/05/09 02:37:55;;;;;;;0.40;0.40;;;;;;;11.21;66.19;102172.25;5009291;28;20033;-72
2022/05/09 02:40:21;;;;;;;0.40;0.40;;;;;;;11.19;66.47;102172.56;5025358;28;20151;-69
2022/05/09 02:42:47;;;;;;;2.97;0.45;;;;;;;11.14;66.76;102175.44;5027612;28;20523;-69
2022/05/09 02:45:13;;;;;;;0.28;0.25;;;;;;;11.09;67.32;102177.53;5027402;28;20473;-69
2022/05/09 02:47:40;;;;;;;0.63;0.40;;;;;;;11.10;66.60;102168.31;5026408;28;20037;-69
2022/05/09 02:50:07;;;;;;;0.50;0.45;;;;;;;11.06;67.34;102176.25;5025825;28;20103;-70
2022/05/09 02:52:32;;;;;;;0.35;0.35;;;;;;;11.06;67.51;102172.75;5027707;28;20427;-69
2022/05/09 02:54:58;;;;;;;0.32;0.30;;;;;;;11.02;67.51;102177.19;5031166;28;20087;-69
2022/05/09 02:57:23;;;;;;;1.08;0.38;;;;;;;10.98;67.83;102168.97;5028666;28;20029;-69
2022/05/09 02:59:49;;;;;;;0.35;0.35;;;;;;;10.95;67.68;102172.31;5031356;28;20480;-69
2022/05/09 03:02:14;;;;;;;0.50;0.47;;;;;;;10.96;68.14;102167.69;5031116;28;20484;-69
2022/05/09 03:04:40;;;;;;;0.35;0.35;;;;;;;10.89;68.19;102163.59;5024563;28;20061;-72
2022/05/09 03:07:18;;;;;;;0.52;0.30;;;;;;;10.89;68.57;102166.31;5015724;28;20083;-69
2022/05/09 03:09:47;;;;;;;0.68;0.63;;;;;;;10.83;68.75;102172.16;5008547;28;20116;-70
2022/05/09 03:12:13;;;;;;;0.32;0.32;;;;;;;10.77;69.54;102168.84;5023092;28;20034;-71
2022/05/09 03:14:39;;;;;;;1.05;0.55;;;;;;;10.78;69.40;102166.94;5020467;28;20038;-69
2022/05/09 03:17:07;;;;;;;0.45;0.30;;;;;;;10.71;69.76;102174.69;5027437;28;20412;-69
2022/05/09 03:19:33;;;;;;;1.42;0.57;;;;;;;10.68;69.88;102178.81;5024605;28;20033;-70
2022/05/09 03:21:59;;;;;;;0.50;0.50;;;;;;;10.69;70.14;102174.22;5026281;28;20476;-70
2022/05/09 03:24:24;;;;;;;0.40;0.40;;;;;;;10.67;69.90;102177.25;5024466;28;20029;-71
2022/05/09 03:26:50;;;;;;;0.98;0.52;;;;;;;10.66;69.85;102174.88;5027721;28;20034;-70
2022/05/09 03:29:18;;;;;;;1.35;0.43;;;;;;;10.66;70.21;102175.66;5025932;28;20041;-69
2022/05/09 03:31:46;;;;;;;0.63;0.63;;;;;;;10.64;69.77;102164.41;5031167;28;20025;-69
2022/05/09 03:34:12;;;;;;;0.35;0.35;;;;;;;10.61;69.95;102166.94;5030468;28;20072;-69
2022/05/09 03:36:38;;;;;;;0.50;0.50;;;;;;;10.59;70.32;102161.06;5029650;28;20033;-69
2022/05/09 03:39:04;;;;;;;0.35;0.35;;;;;;;10.58;70.42;102162.19;5028434;28;20044;-70
2022/05/09 03:41:29;;;;;;;1.10;0.63;;;;;;;10.55;70.87;102163.59;5028460;28;20045;-69
2022/05/09 03:43:55;;;;;;;4.30;0.43;;;;;;;10.52;70.86;102155.38;5030571;28;20056;-70
2022/05/09 03:46:20;;;;;;;0.73;0.52;;;;;;;10.48;70.69;102166.00;5029994;28;20291;-70
2022/05/09 03:48:46;;;;;;;0.98;0.63;;;;;;;10.42;71.12;102150.28;5029230;28;20571;-69
2022/05/09 03:51:11;;;;;;;0.45;0.45;;;;;;;10.43;71.60;102162.66;5029733;28;20037;-69
2022/05/09 03:53:37;;;;;;;2.50;0.90;;;;;;;10.45;71.61;102161.22;5031627;28;20667;-69
2022/05/09 03:56:03;;;;;;;0.43;0.43;;;;;;;10.44;71.55;102170.44;5027980;28;20025;-69
2022/05/09 03:58:29;;;;;;;0.70;0.65;;;;;;;10.46;71.29;102170.91;5031283;28;20036;-69
2022/05/09 04:00:55;;;;;;;1.13;0.40;;;;;;;10.41;71.88;102173.75;5014510;28;20037;-69
2022/05/09 04:03:20;;;;;;;1.10;0.57;;;;;;;10.41;71.88;102171.06;5031731;28;20475;-69
2022/05/09 04:05:48;;;;;;;0.38;0.38;;;;;;;10.45;71.04;102169.31;5027534;28;20029;-71
2022/05/09 04:08:20;;;;;;;0.30;0.30;;;;;;;10.40;71.53;102169.47;5030852;28;20033;-69
2022/05/09 04:10:46;;;;;;;0.30;0.30;;;;;;;10.39;71.52;102175.97;5032183;28;20044;-69
2022/05/09 04:13:13;;;;;;;6.75;0.50;;;;;;;10.39;72.45;102167.91;5030916;28;20112;-69
2022/05/09 04:18:27;;;;;;;1.35;0.57;;;;;;;10.52;71.60;102174.22;5031043;28;20041;-70
2022/05/09 04:20:52;;;;;;;1.45;0.40;;;;;;;10.54;71.78;102164.72;5031552;28;20472;-70
2022/05/09 04:23:18;;;;;;;0.40;0.40;;;;;;;10.55;71.94;102171.69;5029137;28;20025;-69
2022/05/09 04:25:45;;;;;;;0.80;0.47;;;;;;;10.59;72.07;102169.16;5013967;28;20041;-69
2022/05/09 04:28:10;;;;;;;0.60;0.32;;;;;;;10.62;71.64;102177.41;5030740;28;20443;-69
2022/05/09 04:30:38;;;;;;;0.63;0.50;;;;;;;10.64;72.06;102172.50;5030929;28;20037;-70
2022/05/09 04:33:05;;;;;;;0.43;0.43;;;;;;;10.64;71.58;102163.63;5027991;28;20031;-69
2022/05/09 04:35:35;;;;;;;2.80;0.98;;;;;;;10.64;71.89;102164.41;5031181;28;20091;-70
2022/05/09 04:38:02;;;;;;;0.70;0.60;;;;;;;10.69;71.42;102168.84;5013168;28;20447;-69
2022/05/09 04:40:30;;;;;;;0.55;0.50;;;;;;;10.64;71.27;102172.50;5008793;28;20056;-70
2022/05/09 04:42:57;;;;;;;0.55;0.32;;;;;;;10.68;71.01;102167.25;5031176;28;20041;-69
2022/05/09 04:45:24;;;;;;;0.43;0.43;;;;;;;10.64;72.16;102175.19;5030716;28;20029;-69
2022/05/09 04:47:50;;;;;;;0.82;0.55;;;;;;;10.74;71.41;102164.06;5030829;28;20029;-70
2022/05/09 04:50:20;;;;;;;1.58;0.50;;;;;;;10.75;70.99;102159.50;5025888;28;20083;-69
2022/05/09 04:52:45;;;;;;;0.57;0.50;;;;;;;10.75;71.38;102162.19;5030980;28;20079;-69
2022/05/09 04:55:12;;;;;;;0.32;0.32;;;;;;;10.74;71.92;102174.84;5028197;28;20264;-69
2022/05/09 04:57:39;;;;;;;0.85;0.50;;;;;;;10.76;71.90;102167.25;5028479;28;20036;-69
2022/05/09 05:00:08;;;;;;;0.50;0.50;;;;;;;10.81;72.25;102166.31;5030391;28;20384;-69
2022/05/09 05:02:34;;;;;;;0.50;0.50;;;;;;;10.89;71.72;102166.31;5028447;28;20086;-69
2022/05/09 05:04:59;;;;;;;0.30;0.30;;;;;;;10.98;71.04;102168.16;5030600;28;20041;-69
2022/05/09 05:07:24;;;;;;;1.00;0.47;;;;;;;11.11;71.19;102169.91;5029893;28;20039;-69
2022/05/09 05:09:51;;;;;;;0.40;0.40;;;;;;;11.19;70.68;102171.81;5028902;28;20518;-69
2022/05/09 05:12:16;;;;;;;0.75;0.40;;;;;;;11.29;70.66;102169.53;5019269;28;20030;-70
2022/05/09 05:14:41;;;;;;;0.40;0.40;;;;;;;11.67;69.81;102178.47;5023063;28;20029;-70
2022/05/09 05:17:07;;;;;;;0.20;0.20;;;;;;;12.00;68.84;102175.16;5023442;28;20028;-69
2022/05/09 05:19:36;;;;;;;3.30;0.70;;;;;;;12.66;67.77;102166.88;5020664;28;20029;-69
2022/05/09 05:22:10;;;;;;;0.50;0.50;;;;;;;13.85;63.70;102174.03;5025697;28;20029;-70
2022/05/09 05:24:37;;;;;;;1.75;0.50;;;;;;;14.81;60.11;102175.78;5018451;28;20102;-70
2022/05/09 05:27:04;;;;;;;0.35;0.35;;;;;;;15.70;55.96;102172.31;5027868;28;20044;-71
2022/05/09 05:29:30;;;;;;;0.30;0.28;;;;;;;16.44;53.68;102190.31;5017673;28;20382;-70
2022/05/09 05:31:55;;;;;;;3.22;0.50;;;;;;;17.12;51.31;102185.09;5029364;28;20037;-70
2022/05/09 05:34:21;;;;;;;0.73;0.60;;;;;;;17.53;49.46;102178.88;5027534;28;20112;-71
2022/05/09 05:36:46;;;;;;;0.38;0.38;;;;;;;17.90;48.74;102181.78;5024260;28;20041;-72
2022/05/09 05:39:15;;;;;;;0.40;0.40;;;;;;;18.15;48.20;102191.13;5028562;28;20048;-70
2022/05/09 05:41:44;;;;;;;3.15;0.40;;;;;;;18.24;47.64;102190.84;5024412;28;20042;-70
2022/05/09 05:44:14;;;;;;;1.95;0.25;;;;;;;18.32;47.47;102187.06;5025089;28;20128;-70
2022/05/09 05:46:40;;;;;;;3.17;0.95;;;;;;;18.17;47.92;102188.81;5019366;28;20040;-72
2022/05/09 05:49:09;;;;;;;0.38;0.38;;;;;;;18.04;47.88;102193.69;5025504;28;20022;-70
2022/05/09 05:51:36;;;;;;;0.20;0.20;;;;;;;17.99;48.37;102196.75;5007462;28;20463;-70
2022/05/09 05:54:03;;;;;;;0.50;0.50;;;;;;;17.91;48.61;102181.41;5012627;28;20243;-71
2022/05/09 05:56:29;;;;;;;1.13;0.47;;;;;;;17.84;48.57;102178.59;5012593;28;20506;-71
2022/05/09 05:58:54;;;;;;;0.43;0.20;;;;;;;17.93;48.69;102181.84;5014182;28;20041;-71
2022/05/09 06:01:19;;;;;;;3.65;0.47;;;;;;;17.87;49.02;102188.75;5017286;28;20488;-70
2022/05/09 06:03:45;;;;;;;0.52;0.22;;;;;;;17.91;48.84;102180.63;5010994;28;20060;-70
2022/05/09 06:06:13;;;;;;;0.60;0.30;;;;;;;17.85;48.70;102184.81;5012751;28;20033;-71
2022/05/09 06:08:40;;;;;;;0.65;0.35;;;;;;;17.78;49.59;102180.06;5013436;28;20033;-71
2022/05/09 06:11:06;;;;;;;0.10;0.10;;;;;;;17.77;49.83;102181.19;5014933;28;20041;-70
2022/05/09 06:13:33;;;;;;;0.30;0.30;;;;;;;17.67;49.87;102178.31;5013035;28;20325;-70
2022/05/09 06:15:58;;;;;;;3.45;0.52;;;;;;;17.63;49.76;102172.03;5013850;28;20069;-71
2022/05/09 06:18:23;;;;;;;2.63;0.60;;;;;;;17.61;49.65;102177.03;5010992;28;20124;-72
2022/05/09 06:20:49;;;;;;;1.20;0.70;;;;;;;17.57;49.71;102179.72;5013977;28;20484;-71
2022/05/09 06:23:17;;;;;;;2.83;0.40;;;;;;;17.53;49.77;102189.78;5012872;28;20542;-71
2022/05/09 06:25:46;;;;;;;2.75;0.32;;;;;;;17.36;50.59;102186.72;5012361;28;20482;-70
2022/05/09 06:28:14;;;;;;;1.95;0.25;;;;;;;17.35;49.81;102183.19;5014548;28;20033;-70
2022/05/09 06:30:39;;;;;;;4.07;0.50;;;;;;;17.22;50.36;102183.72;5017851;28;20033;-71
2022/05/09 06:33:06;;;;;;;1.65;0.38;;;;;;;17.04;51.54;102178.75;5016928;28;20463;-71
2022/05/09 06:35:43;;;;;;;0.53;0.53;;;;;;;17.03;52.22;102185.31;5017922;28;20052;-71
2022/05/09 06:38:10;;;;;;;0.20;0.20;;;;;;;17.11;52.01;102181.59;5018153;28;20033;-70
2022/05/09 06:40:36;;;;;;;1.98;0.52;;;;;;;17.30;52.23;102180.00;5017160;28;20039;-71
2022/05/09 06:43:03;;;;;;;0.20;0.20;;;;;;;17.41;52.38;102179.03;5018005;28;20044;-70
2022/05/09 06:45:32;;;;;;;4.80;0.40;;;;;;;17.49;52.51;102174.50;5017351;28;20037;-71
2022/05/09 06:47:58;;;;;;;0.30;0.30;;;;;;;17.61;52.38;102182.50;5018554;28;20060;-73
2022/05/09 06:50:34;;;;;;;0.30;0.30;;;;;;;17.58;52.92;102175.84;5011369;28;20120;-72
2022/05/09 06:53:01;;;;;;;0.93;0.30;;;;;;;17.74;52.71;102189.31;5018883;28;20033;-71
2022/05/09 06:55:27;;;;;;;0.50;0.30;;;;;;;17.81;51.57;102182.03;5018333;28;20039;-71
2022/05/09 06:57:52;;;;;;;0.55;0.28;;;;;;;17.79;52.42;102170.72;5019718;28;20400;-71
2022/05/09 07:00:21;;;;;;;2.28;0.40;;;;;;;17.79;52.13;102173.44;5020327;28;20033;-70
2022/05/09 07:02:46;;;;;;;0.63;0.30;;;;;;;17.85;52.36;102168.47;5018431;28;20107;-69
2022/05/09 07:05:15;;;;;;;1.58;0.30;;;;;;;17.95;51.50;102173.28;5019853;28;20088;-70
2022/05/09 07:07:41;;;;;;;0.95;0.35;;;;;;;18.03;51.59;102170.31;5020835;28;20049;-70
2022/05/09 07:10:07;;;;;;;0.40;0.30;;;;;;;18.01;52.39;102177.28;5017744;28;20048;-70
2022/05/09 07:12:44;;;;;;;3.70;0.30;;;;;;;18.08;51.56;102174.66;5016788;28;20494;-70
2022/05/09 07:15:12;;;;;;;0.30;0.20;;;;;;;17.94;51.61;102175.22;5017513;28;20033;-70
2022/05/09 07:17:37;;;;;;;0.90;0.38;;;;;;;17.95;52.43;102173.28;5018484;28;20076;-70
2022/05/09 07:20:04;;;;;;;0.80;0.38;;;;;;;18.09;53.13;102172.72;5015514;28;20531;-70
2022/05/09 07:22:29;;;;;;;0.20;0.10;;;;;;;18.19;52.57;102175.59;5019838;28;20079;-69
2022/05/09 07:24:56;;;;;;;2.17;0.20;;;;;;;18.41;51.05;102173.91;5017467;28;20034;-70
2022/05/09 07:27:21;;;;;;;0.35;0.20;;;;;;;18.51;50.93;102174.09;5019666;28;20040;-70
2022/05/09 07:29:47;;;;;;;0.85;0.68;;;;;;;18.59;50.45;102173.03;5018497;28;20065;-71
2022/05/09 07:32:14;;;;;;;0.47;0.20;;;;;;;18.78;49.83;102166.59;5014343;28;20236;-70
2022/05/09 07:34:39;;;;;;;1.20;0.40;;;;;;;18.83;50.18;102175.25;5017398;28;20056;-70
2022/05/09 07:37:05;;;;;;;1.48;0.38;;;;;;;18.87;48.31;102172.59;5018044;28;20045;-70
2022/05/09 07:39:31;;;;;;;1.27;0.40;;;;;;;18.85;48.83;102164.75;5018657;28;20048;-70
2022/05/09 07:41:57;;;;;;;0.30;0.30;;;;;;;18.77;49.30;102171.31;5015945;28;20032;-70
2022/05/09 07:44:22;;;;;;;0.50;0.25;;;;;;;18.71;48.69;102167.34;5018060;28;20119;-71
2022/05/09 07:46:48;;;;;;;1.15;0.40;;;;;;;18.77;48.93;102175.97;5017540;28;20098;-71
2022/05/09 07:49:13;;;;;;;1.27;0.50;;;;;;;18.88;48.22;102168.69;5025767;28;20324;-70
2022/05/09 07:51:39;;;;;;;1.35;0.30;;;;;;;18.94;48.05;102178.13;5014341;28;20025;-70
2022/05/09 07:54:05;;;;;;;0.22;0.20;;;;;;;19.04;48.25;102169.25;5016061;28;20052;-70
2022/05/09 07:56:31;;;;;;;4.10;0.20;;;;;;;19.17;47.63;102177.94;5013726;28;20049;-70
2022/05/09 07:58:57;;;;;;;1.25;0.20;;;;;;;19.29;46.49;102178.47;5015322;28;20033;-71
2022/05/09 08:01:22;;;;;;;0.20;0.20;;;;;;;19.42;46.67;102177.06;5016496;28;20116;-69
2022/05/09 08:03:48;;;;;;;5.82;0.70;;;;;;;19.53;46.09;102174.41;5017935;28;20496;-69
2022/05/09 08:06:13;;;;;;;0.55;0.30;;;;;;;19.67;45.98;102164.38;5018204;28;20049;-70
2022/05/09 08:08:40;;;;;;;2.92;0.30;;;;;;;19.98;45.20;102163.03;5027486;28;20034;-70
2022/05/09 08:11:06;;;;;;;1.55;1.23;;;;;;;20.15;44.47;102161.56;5031494;28;20029;-71
2022/05/09 08:13:34;;;;;;;2.90;0.47;;;;;;;20.12;44.64;102163.09;5027120;28;20041;-70
2022/05/09 08:16:02;;;;;;;0.77;0.20;;;;;;;20.21;45.03;102158.09;5030093;28;20080;-70
2022/05/09 08:18:30;;;;;;;2.80;0.40;;;;;;;20.29;43.18;102159.72;5029886;28;20063;-70
2022/05/09 08:20:57;;;;;;;0.65;0.65;;;;;;;20.31;43.69;102157.38;5029540;28;20489;-71
2022/05/09 08:23:23;;;;;;;0.10;0.10;;;;;;;20.26;42.91;102156.97;5029226;28;20069;-70
2022/05/09 08:25:50;;;;;;;0.20;0.20;;;;;;;20.34;43.68;102158.56;5030415;28;20463;-70
2022/05/09 08:28:18;;;;;;;0.20;0.13;;;;;;;20.28;43.47;102157.34;5029931;28;20063;-70
2022/05/09 08:30:44;;;;;;;0.65;0.10;;;;;;;20.37;42.29;102152.31;5028509;28;20029;-70
2022/05/09 08:33:16;;;;;;;0.38;0.20;;;;;;;20.69;42.37;102150.50;5030336;28;20135;-70
2022/05/09 08:35:47;;;;;;;0.38;0.30;;;;;;;20.86;43.41;102147.00;5029941;28;20283;-70
2022/05/09 08:38:13;;;;;;;0.28;0.20;;;;;;;20.92;43.10;102145.47;5029753;28;20033;-70
2022/05/09 08:41:08;;;;;;;4.60;0.32;;;;;;;21.00;43.18;102149.75;5017371;28;20480;-70
2022/05/09 08:44:22;;;;;;;0.55;0.20;;;;;;;21.05;42.84;102148.63;5030418;28;20095;-70
2022/05/09 08:46:58;;;;;;;1.10;0.20;;;;;;;20.96;43.73;102140.78;4957662;28;20047;-69
2022/05/09 08:49:50;;;;;;;0.68;0.30;;;;;;;21.02;44.02;102139.22;5027457;28;20037;-70
2022/05/09 08:52:31;;;;;;;2.95;0.47;;;;;;;21.25;43.45;102136.13;5024678;28;20552;-70
2022/05/09 08:54:56;;;;;;;0.98;0.30;;;;;;;21.38;43.15;102140.06;5024089;28;20041;-71
2022/05/09 08:57:25;;;;;;;0.82;0.40;;;;;;;21.56;42.92;102135.34;5007339;28;20524;-70
2022/05/09 09:00:31;;;;;;;1.75;0.25;;;;;;;21.56;43.49;102141.59;5029047;28;20095;-70
2022/05/09 09:03:06;;;;;;;0.98;0.25;;;;;;;21.47;42.46;102133.00;5025165;28;20045;-69
2022/05/09 09:05:35;;;;;;;0.40;0.20;;;;;;;21.61;43.36;102136.91;5026676;28;20033;-69
2022/05/09 09:08:06;;;;;;;1.27;0.40;;;;;;;21.76;43.49;102124.72;5024349;28;20493;-69
2022/05/09 09:10:49;;;;;;;1.83;0.80;;;;;;;21.97;43.21;102127.47;5025072;28;20041;-69
2022/05/09 09:13:45;;;;;;;6.18;0.50;;;;;;;22.02;42.67;102135.28;5026572;28;20056;-70
2022/05/09 09:16:32;;;;;;;1.08;0.63;;;;;;;22.20;41.79;102136.03;5020595;28;20071;-70
2022/05/09 09:19:38;;;;;;;0.82;0.30;;;;;;;22.10;42.47;102132.13;5003792;28;20056;-70
2022/05/09 09:22:13;;;;;;;0.60;0.30;;;;;;;22.40;43.15;102124.16;5020559;28;20124;-70
2022/05/09 09:25:06;;;;;;;0.57;0.20;;;;;;;22.72;42.78;102123.25;5012697;28;20094;-70
2022/05/09 09:27:45;;;;;;;2.22;0.40;;;;;;;23.06;42.17;102116.75;5010354;28;20034;-71
2022/05/09 09:30:18;;;;;;;0.45;0.40;;;;;;;23.24;39.11;102124.84;5006113;28;20041;-69
2022/05/09 09:32:57;;;;;;;0.60;0.32;;;;;;;23.02;39.13;102132.47;5023829;28;20083;-69
2022/05/09 09:35:37;;;;;;;0.45;0.20;;;;;;;22.90;40.01;102110.19;5025700;28;20044;-69
2022/05/09 09:38:21;;;;;;;0.38;0.20;;;;;;;23.08;41.47;102111.63;5023216;28;20059;-70
2022/05/09 09:40:46;;;;;;;3.83;0.30;;;;;;;23.18;39.06;102119.00;5026212;28;20037;-69
2022/05/09 09:43:12;;;;;;;1.65;0.20;;;;;;;23.22;37.83;102114.25;5025020;28;20037;-69
2022/05/09 09:45:44;;;;;;;3.22;0.35;;;;;;;23.22;38.81;102108.75;5025709;28;20412;-71
2022/05/09 09:48:20;;;;;;;0.95;0.25;;;;;;;23.43;38.75;102098.78;5021733;28;20045;-69
2022/05/09 09:51:12;;;;;;;0.47;0.22;;;;;;;23.54;37.45;102104.97;5022683;28;20033;-70
2022/05/09 09:53:40;;;;;;;1.55;0.40;;;;;;;23.77;36.73;102096.88;5022905;28;20049;-70
2022/05/09 09:56:08;;;;;;;1.05;0.70;;;;;;;23.89;36.48;102104.59;5026708;28;20029;-69
2022/05/09 09:58:34;;;;;;;2.63;0.20;;;;;;;24.01;36.47;102096.59;5013785;28;20041;-71
2022/05/09 10:01:04;;;;;;;1.80;0.60;;;;;;;24.18;36.61;102101.13;5022819;28;20529;-71
2022/05/09 10:03:32;;;;;;;2.30;1.27;;;;;;;24.18;36.79;102105.84;5025570;28;20040;-69
2022/05/09 10:05:59;;;;;;;0.63;0.25;;;;;;;24.27;35.71;102113.63;5021495;28;20384;-69
2022/05/09 10:08:38;;;;;;;0.57;0.30;;;;;;;24.33;35.54;102110.00;5024495;28;20506;-69
2022/05/09 10:11:11;;;;;;;0.77;0.32;;;;;;;24.36;34.55;102100.13;5026436;28;20061;-69
2022/05/09 10:13:58;;;;;;;2.65;0.20;;;;;;;24.50;34.37;102097.97;5027031;28;20087;-69
2022/05/09 10:16:27;;;;;;;0.10;0.10;;;;;;;24.49;34.63;102093.66;5027622;28;20034;-69
2022/05/09 10:18:53;;;;;;;1.10;0.20;;;;;;;24.57;35.24;102077.78;5028757;28;20037;-69
2022/05/09 10:24:49;;;;;;;0.30;0.30;;;;;;;24.29;34.54;102080.94;4986587;28;20121;-69
2022/05/09 10:27:20;;;;;;;2.70;0.30;;;;;;;24.55;34.38;102074.66;5022141;28;20516;-69
2022/05/09 10:29:49;;;;;;;4.07;0.75;;;;;;;24.84;33.92;102078.59;5016779;28;20046;-68
2022/05/09 10:32:34;;;;;;;0.40;0.20;;;;;;;25.05;34.64;102064.47;5024621;28;20052;-69
2022/05/09 10:35:11;;;;;;;2.28;0.43;;;;;;;25.32;33.76;102064.41;5026521;28;20083;-69
2022/05/09 10:38:04;;;;;;;1.33;1.00;;;;;;;25.27;34.28;102062.13;5028213;28;20041;-69
2022/05/09 10:40:46;;;;;;;0.43;0.38;;;;;;;25.35;33.17;102056.06;5022231;28;20377;-68
2022/05/09 10:43:13;;;;;;;0.30;0.13;;;;;;;25.46;32.76;102051.16;5013705;28;20029;-71
2022/05/09 10:45:49;;;;;;;0.95;0.30;;;;;;;25.39;33.80;102050.47;5022500;28;20353;-72
2022/05/09 10:48:36;;;;;;;0.20;0.20;;;;;;;25.57;35.26;102042.69;5027105;28;20442;-67
2022/05/09 10:51:06;;;;;;;0.40;0.28;;;;;;;25.68;34.72;102051.53;5026322;28;20029;-68
2022/05/09 10:53:31;;;;;;;0.40;0.20;;;;;;;25.88;32.97;102057.81;5027758;28;20033;-69
2022/05/09 10:56:16;;;;;;;0.65;0.20;;;;;;;25.99;33.09;102049.34;5026041;28;20042;-68
2022/05/09 10:58:57;;;;;;;1.55;0.32;;;;;;;26.15;33.21;102055.72;5028323;28;20117;-69
2022/05/09 11:01:32;;;;;;;;;;;;;;;26.12;33.50;102055.78;5029838;28;20037;-69
2022/05/09 11:03:59;;;;;;;0.90;0.43;;;;;;;26.03;34.17;102042.53;5027313;28;19913;-72
2022/05/09 11:06:24;;;;;;;0.77;0.57;;;;;;;26.21;33.46;102044.97;5024468;28;20033;-71
2022/05/09 11:09:17;;;;;;;0.90;0.40;;;;;;;26.12;34.22;102040.00;5008848;28;20040;-68
2022/05/09 11:12:09;;;;;;;0.25;0.22;;;;;;;26.48;34.88;102038.00;5008808;28;20038;-68
2022/05/09 11:14:46;;;;;;;0.25;0.20;;;;;;;26.67;34.01;102039.16;5015341;28;21055;-68
2022/05/09 11:17:33;;;;;;;2.78;0.25;;;;;;;27.04;33.37;102032.34;5030121;28;20488;-68
2022/05/09 11:20:23;;;;;;;3.42;0.17;;;;;;;26.99;31.13;102030.88;5030249;28;20036;-70
2022/05/09 11:23:05;;;;;;;2.15;0.32;;;;;;;26.76;31.57;102026.31;5026580;28;20125;-68
2022/05/09 11:25:56;;;;;;;1.17;0.25;;;;;;;26.58;33.02;102017.63;5032292;28;20403;-64
2022/05/09 11:28:40;;;;;;;3.53;1.13;;;;;;;26.76;31.77;102020.78;5011890;28;20045;-64
2022/05/09 11:31:20;;;;;;;2.65;0.95;;;;;;;26.90;33.46;102011.34;5020917;28;20289;-64
2022/05/09 11:34:22;;;;;;;1.73;0.30;;;;;;;27.18;32.52;102007.81;5028740;28;20435;-64
2022/05/09 11:36:59;;;;;;;1.25;0.30;;;;;;;27.32;30.81;101999.19;5010354;28;20422;-64
2022/05/09 11:39:46;;;;;;;0.20;0.20;;;;;;;27.38;31.38;102002.97;5015115;28;20120;-64
2022/05/09 11:45:40;;;;;;;0.93;0.82;;;;;;;27.21;30.42;102008.97;5030578;28;20034;-64
2022/05/09 11:48:21;;;;;;;1.08;0.75;;;;;;;27.23;31.01;101999.00;5021765;28;20097;-64
2022/05/09 11:51:19;;;;;;;1.85;0.55;;;;;;;27.33;29.98;101994.44;5028247;28;20538;-64
2022/05/09 11:53:53;;;;;;;1.25;0.90;;;;;;;27.29;29.54;101990.94;5009713;28;20041;-64